Time;durP1;ratioP1;P1;durP2;ratioP2;P2;SDS_P1;SDS_P2;PMS_P1;PMS_P2;Temp;Humidity;BMP_temperature;BMP_pressure;BME280_temperature;BME280_humidity;BME280_pressure;Samples;Min_cycle;Max_cycle;Signal;HPM_P1;HPM_P2
2023/05/22 00:00:07;;;;;;;;;3.33;2.00;;;;;23.88;36.68;101627.31;6304682;22;45534;-76
2023/05/22 00:02:41;;;;;;;;;3.00;2.67;;;;;23.94;36.33;101639.91;6303974;22;45324;-76
2023/05/22 00:05:09;;;;;;;;;2.67;2.67;;;;;23.95;36.55;101627.44;6304121;22;45454;-77
2023/05/22 00:07:35;;;;;;;;;3.00;2.00;;;;;23.74;36.47;101591.69;6303818;22;47362;-76
2023/05/22 00:10:00;;;;;;;;;3.33;1.33;;;;;23.83;36.40;101605.75;6303728;22;45170;-76
2023/05/22 00:12:25;;;;;;;;;4.33;3.00;;;;;23.84;36.38;101615.38;6304054;22;45369;-76
2023/05/22 00:14:51;;;;;;;;;2.00;1.00;;;;;23.85;36.23;101614.38;6304639;22;45333;-76
2023/05/22 00:17:17;;;;;;;;;2.00;2.00;;;;;23.95;36.75;101632.75;6303367;22;46139;-76
2023/05/22 00:19:42;;;;;;;;;2.67;2.00;;;;;23.93;36.15;101627.63;6304050;22;45293;-76
2023/05/22 00:22:08;;;;;;;;;5.00;4.00;;;;;23.87;36.69;101617.69;6304246;22;45292;-76
2023/05/22 00:24:33;;;;;;;;;3.00;2.00;;;;;23.93;36.67;101632.13;6302479;22;45412;-77
2023/05/22 00:26:59;;;;;;;;;2.00;2.00;;;;;23.93;36.51;101627.63;6303727;22;46331;-76
2023/05/22 00:29:24;;;;;;;;;2.67;2.00;;;;;23.94;36.62;101634.59;6304346;22;45207;-76
2023/05/22 00:31:49;;;;;;;;;3.33;1.00;;;;;23.94;36.44;101631.94;6303785;22;45269;-76
2023/05/22 00:34:15;;;;;;;;;3.00;2.67;;;;;23.93;36.36;101635.59;6304675;22;45277;-76
2023/05/22 00:36:40;;;;;;;;;2.00;1.00;;;;;23.96;36.50;101639.75;6304073;22;45494;-76
2023/05/22 00:39:05;;;;;;;;;3.67;2.00;;;;;23.95;36.33;101636.25;6303674;22;45304;-76
2023/05/22 00:41:32;;;;;;;;;2.67;2.67;;;;;23.96;36.25;101634.44;6304040;22;45710;-76
2023/05/22 00:43:59;;;;;;;;;2.33;2.00;;;;;23.90;36.16;101622.66;6303993;22;45361;-77
2023/05/22 00:46:24;;;;;;;;;2.00;2.00;;;;;23.75;36.23;101593.34;6303257;22;46179;-76
2023/05/22 00:48:51;;;;;;;;;1.67;1.67;;;;;23.90;36.29;101611.19;6303751;22;45233;-76
2023/05/22 00:51:19;;;;;;;;;3.00;1.00;;;;;23.85;36.23;101606.41;6303891;22;45313;-76
2023/05/22 00:53:45;;;;;;;;;2.33;1.33;;;;;24.02;36.29;101632.91;6301965;22;45646;-77
2023/05/22 00:56:11;;;;;;;;;1.33;1.33;;;;;23.93;36.14;101624.13;6303955;22;46445;-76
2023/05/22 00:58:37;;;;;;;;;3.67;3.00;;;;;23.92;36.13;101607.38;6303587;22;45244;-76
2023/05/22 01:01:04;;;;;;;;;1.67;1.67;;;;;24.01;36.25;101625.94;6303537;22;45305;-76
2023/05/22 01:03:30;;;;;;;;;2.00;2.00;;;;;24.00;36.50;101626.91;6303796;22;45194;-76
2023/05/22 01:05:56;;;;;;;;;2.00;1.33;;;;;23.87;36.54;101606.22;6303397;22;46151;-76
2023/05/22 01:08:21;;;;;;;;;2.00;2.00;;;;;23.98;36.23;101621.78;6303289;22;45242;-76
2023/05/22 01:10:55;;;;;;;;;1.00;1.00;;;;;23.97;36.51;101622.78;6304093;22;45446;-76
2023/05/22 01:13:53;;;;;;;;;2.00;2.00;;;;;23.96;36.07;101624.63;6303918;22;45241;-76
2023/05/22 01:16:22;;;;;;;;;3.00;1.67;;;;;23.96;35.67;101626.44;6304818;22;47038;-76
2023/05/22 01:19:01;;;;;;;;;2.00;2.00;;;;;23.94;36.03;101626.63;6304909;22;45272;-76
2023/05/22 01:21:37;;;;;;;;;3.00;3.00;;;;;23.94;36.18;101620.50;6305573;22;45233;-76
2023/05/22 01:24:24;;;;;;;;;3.00;1.67;;;;;23.94;36.57;101620.50;6305498;22;45469;-76
2023/05/22 01:27:13;;;;;;;;;5.33;1.00;;;;;23.82;36.05;101596.13;6304952;22;47200;-76
2023/05/22 01:29:47;;;;;;;;;2.67;2.67;;;;;23.92;36.05;101612.69;6304379;22;45266;-76
2023/05/22 01:32:18;;;;;;;;;2.00;2.00;;;;;23.77;36.49;101583.38;6305039;22;45297;-75
2023/05/22 01:34:49;;;;;;;;;2.67;2.33;;;;;23.89;36.11;101609.56;6305157;22;45170;-75
2023/05/22 01:37:17;;;;;;;;;2.67;2.00;;;;;23.91;36.66;101616.34;6304538;22;47137;-76
2023/05/22 01:39:43;;;;;;;;;2.00;2.00;;;;;23.86;36.62;101605.41;6304742;22;45273;-75
2023/05/22 01:42:09;;;;;;;;;2.00;2.00;;;;;23.77;36.30;101596.66;6305511;22;45276;-76
2023/05/22 01:44:34;;;;;;;;;5.00;4.33;;;;;23.90;36.26;101613.84;6304543;22;45281;-75
2023/05/22 01:47:03;;;;;;;;;2.33;2.33;;;;;23.80;36.37;101598.13;6304715;22;46069;-75
2023/05/22 01:49:30;;;;;;;;;4.00;3.00;;;;;23.90;36.49;101614.69;6304758;22;45336;-75
2023/05/22 01:52:40;;;;;;;;;2.67;1.33;;;;;23.85;36.59;101604.59;6304933;22;45308;-76
2023/05/22 01:55:12;;;;;;;;;2.00;2.00;;;;;23.90;36.49;101617.34;6179227;23;45324;-75
2023/05/22 01:57:58;;;;;;;;;2.00;2.00;;;;;23.88;36.48;101607.88;6178442;23;46342;-75
2023/05/22 02:00:26;;;;;;;;;2.00;2.00;;;;;23.80;36.48;101595.47;6153840;23;45572;-76
2023/05/22 02:02:57;;;;;;;;;2.00;2.00;;;;;23.77;36.32;101590.50;6179237;23;45403;-76
2023/05/22 02:05:24;;;;;;;;;3.00;1.00;;;;;23.89;36.48;101604.25;6179584;23;45236;-75
2023/05/22 02:07:55;;;;;;;;;1.67;1.33;;;;;23.87;36.36;101596.44;6179372;23;46390;-75
2023/05/22 02:10:21;;;;;;;;;2.67;1.00;;;;;23.90;36.50;101601.41;6179569;23;45243;-75
2023/05/22 02:12:47;;;;;;;;;1.00;1.00;;;;;23.83;36.68;101597.78;6179347;23;45342;-75
2023/05/22 02:15:13;;;;;;;;;2.00;1.00;;;;;23.85;36.62;101599.28;6179590;23;45557;-76
2023/05/22 02:17:43;;;;;;;;;1.33;1.00;;;;;23.92;36.42;101602.03;6178786;23;46184;-76
2023/05/22 02:20:15;;;;;;;;;2.00;1.00;;;;;23.87;36.54;101595.59;6179561;23;45363;-75
2023/05/22 02:22:43;;;;;;;;;1.33;1.33;;;;;23.93;36.03;101606.38;6179264;23;45304;-76
2023/05/22 02:25:13;;;;;;;;;1.00;1.00;;;;;23.90;36.68;101601.41;6210204;22;45363;-76
2023/05/22 02:27:39;;;;;;;;;1.00;1.00;;;;;23.89;36.38;101605.03;6304131;22;46252;-76
2023/05/22 02:30:05;;;;;;;;;2.00;2.00;;;;;23.94;36.27;101612.53;6304636;22;45386;-75
2023/05/22 02:32:32;;;;;;;;;2.00;2.00;;;;;23.94;36.52;101615.19;6304724;22;45292;-75
2023/05/22 02:34:57;;;;;;;;;1.00;1.00;;;;;23.93;36.21;101610.84;6304738;22;45451;-75
2023/05/22 02:37:23;;;;;;;;;3.00;1.00;;;;;23.82;36.42;101588.16;6304826;22;45990;-76
2023/05/22 02:39:48;;;;;;;;;3.00;2.00;;;;;23.95;36.42;101615.00;6305116;22;45295;-76
2023/05/22 02:42:13;;;;;;;;;3.00;2.00;;;;;23.81;36.41;101591.81;6304705;22;45315;-75
2023/05/22 02:44:39;;;;;;;;;2.00;2.00;;;;;23.78;36.78;101592.16;6305193;22;45400;-76
2023/05/22 02:47:04;;;;;;;;;1.67;1.67;;;;;23.94;36.34;101605.34;6304534;22;46037;-75
2023/05/22 02:49:30;;;;;;;;;2.00;1.00;;;;;23.89;36.68;101607.69;6305293;22;45221;-76
2023/05/22 02:51:55;;;;;;;;;0.33;0.33;;;;;23.84;36.71;101594.94;6305419;22;45272;-76
2023/05/22 02:54:20;;;;;;;;;1.00;1.00;;;;;23.81;36.44;101591.81;6304719;22;45413;-75
2023/05/22 02:56:46;;;;;;;;;2.67;1.00;;;;;23.83;36.56;101589.81;6302383;22;46881;-75
2023/05/22 02:59:11;;;;;;;;;1.00;1.00;;;;;23.92;36.49;101607.38;6304900;22;45316;-75
2023/05/22 03:01:37;;;;;;;;;2.00;1.00;;;;;23.88;36.59;101603.41;6305116;22;45219;-76
2023/05/22 03:04:03;;;;;;;;;2.33;2.33;;;;;23.92;36.20;101603.88;6304756;22;45480;-76
2023/05/22 03:06:29;;;;;;;;;1.33;1.00;;;;;23.82;36.35;101588.16;6304715;22;45183;-76
2023/05/22 03:08:54;;;;;;;;;1.00;1.00;;;;;23.83;36.68;101592.47;6304307;22;45565;-76
2023/05/22 03:11:20;;;;;;;;;1.67;1.67;;;;;23.77;36.29;101588.69;6304909;22;45292;-76
2023/05/22 03:13:45;;;;;;;;;1.00;1.00;;;;;23.88;36.24;101599.91;6304469;22;45438;-75
2023/05/22 03:16:11;;;;;;;;;3.00;1.00;;;;;23.91;36.57;101610.19;6304366;22;46251;-75
2023/05/22 03:18:36;;;;;;;;;2.33;2.33;;;;;23.86;36.41;101594.78;6304828;22;45312;-75
2023/05/22 03:21:02;;;;;;;;;1.00;1.00;;;;;23.86;36.30;101602.75;6304589;22;45241;-76
2023/05/22 03:23:27;;;;;;;;;2.00;2.00;;;;;23.87;36.62;101600.91;6304470;22;45497;-75
2023/05/22 03:25:53;;;;;;;;;2.00;2.00;;;;;23.88;36.44;101592.78;6304240;22;45445;-75
2023/05/22 03:28:18;;;;;;;;;1.33;1.33;;;;;23.80;36.56;101584.84;6304374;22;45226;-76
2023/05/22 03:30:43;;;;;;;;;3.00;2.00;;;;;23.88;36.40;101592.78;6305046;22;45268;-75
2023/05/22 03:33:08;;;;;;;;;1.67;1.67;;;;;23.77;36.76;101578.03;6302866;22;45230;-76
2023/05/22 03:35:35;;;;;;;;;3.00;1.33;;;;;23.73;36.30;101572.25;6304285;22;47195;-76
2023/05/22 03:38:00;;;;;;;;;2.33;2.00;;;;;23.85;36.64;101593.97;6304740;22;45276;-76
2023/05/22 03:40:25;;;;;;;;;4.33;1.67;;;;;23.74;36.46;101575.72;6302260;22;45700;-76
2023/05/22 03:42:51;;;;;;;;;3.33;1.33;;;;;23.84;36.71;101583.47;6304734;22;45263;-76
2023/05/22 03:45:16;;;;;;;;;2.00;2.00;;;;;23.80;36.52;101572.38;6304078;22;46089;-76
2023/05/22 03:47:41;;;;;;;;;3.33;2.00;;;;;23.88;35.94;101578.66;6304707;22;45354;-76
2023/05/22 03:50:08;;;;;;;;;2.00;2.00;;;;;23.64;36.71;101557.34;6303804;22;45288;-76
2023/05/22 03:52:34;;;;;;;;;3.00;3.00;;;;;23.77;36.52;101572.72;6304666;22;45276;-76
2023/05/22 03:54:59;;;;;;;;;1.00;1.00;;;;;23.87;36.49;101588.44;6304115;22;45613;-76
2023/05/22 03:57:24;;;;;;;;;1.00;1.00;;;;;23.87;36.40;101591.09;6304509;22;45347;-75
2023/05/22 03:59:50;;;;;;;;;1.00;1.00;;;;;23.78;36.71;101577.06;6304438;22;48575;-75
2023/05/22 04:02:16;;;;;;;;;4.67;3.33;;;;;23.90;36.79;101589.94;6304190;22;45291;-75
2023/05/22 04:04:45;;;;;;;;;2.00;2.00;;;;;23.85;36.44;101588.63;6304022;22;46440;-76
2023/05/22 04:07:12;;;;;;;;;1.67;1.67;;;;;23.91;36.28;101597.75;6303947;22;45351;-76
2023/05/22 04:09:38;;;;;;;;;2.67;1.33;;;;;23.91;36.35;101597.75;6304264;22;45176;-76
2023/05/22 04:12:04;;;;;;;;;2.00;2.00;;;;;23.80;36.41;101576.88;6304104;22;45457;-75
2023/05/22 04:14:29;;;;;;;;;2.33;2.00;;;;;23.92;36.74;101593.25;6303848;22;46432;-76
2023/05/22 04:16:54;;;;;;;;;1.67;1.33;;;;;23.92;36.51;101587.91;6303718;22;45310;-75
2023/05/22 04:19:20;;;;;;;;;1.33;1.33;;;;;23.91;36.65;101595.09;6303145;22;45648;-76
2023/05/22 04:21:46;;;;;;;;;2.00;2.00;;;;;23.85;36.63;101585.97;6303551;22;45224;-75
2023/05/22 04:24:12;;;;;;;;;3.00;3.00;;;;;23.87;36.81;101583.13;6304163;22;45458;-75
2023/05/22 04:26:38;;;;;;;;;3.33;2.00;;;;;23.89;36.33;101591.75;6304267;22;45240;-75
2023/05/22 04:29:05;;;;;;;;;2.00;2.00;;;;;23.90;36.89;101597.91;6304148;22;45302;-75
2023/05/22 04:31:31;;;;;;;;;2.00;2.00;;;;;23.82;36.37;101582.84;6303863;22;45434;-75
2023/05/22 04:33:58;;;;;;;;;2.67;1.00;;;;;23.88;36.31;101600.75;6303622;22;46100;-75
2023/05/22 04:36:26;;;;;;;;;1.67;1.67;;;;;23.82;36.51;101593.47;6303264;22;45258;-76
2023/05/22 04:38:52;;;;;;;;;0.00;0.00;;;;;23.88;36.63;101603.41;6304015;22;45280;-76
2023/05/22 04:41:18;;;;;;;;;3.00;3.00;;;;;23.88;36.84;101607.88;6303760;22;45515;-75
2023/05/22 04:43:43;;;;;;;;;3.67;3.00;;;;;23.85;36.90;101603.75;6303527;22;46723;-75
2023/05/22 04:46:09;;;;;;;;;4.67;2.67;;;;;23.83;36.55;101608.41;6303370;22;45349;-75
2023/05/22 04:48:35;;;;;;;;;2.00;2.00;;;;;23.88;36.84;101605.22;6304423;22;45345;-75
2023/05/22 04:51:01;;;;;;;;;3.00;3.00;;;;;23.89;36.95;101617.53;6304693;22;45308;-76
2023/05/22 04:53:27;;;;;;;;;1.33;1.33;;;;;23.87;36.45;101619.50;6304841;22;46188;-75
2023/05/22 04:55:53;;;;;;;;;1.67;1.67;;;;;23.89;36.48;101620.19;6305395;22;45228;-75
2023/05/22 04:58:18;;;;;;;;;4.00;2.67;;;;;23.89;36.60;101620.19;6305335;22;45209;-76
2023/05/22 05:00:44;;;;;;;;;4.00;1.67;;;;;23.89;37.02;101617.53;6305753;22;45098;-76
2023/05/22 05:03:10;;;;;;;;;4.00;2.00;;;;;23.76;36.77;101596.84;6305364;22;46418;-76
2023/05/22 05:05:36;;;;;;;;;3.33;3.00;;;;;23.73;36.86;101593.50;6304585;22;45271;-75
2023/05/22 05:08:01;;;;;;;;;3.00;3.00;;;;;23.76;36.58;101605.59;6305530;22;45226;-75
2023/05/22 05:10:26;;;;;;;;;3.00;3.00;;;;;23.70;36.60;101601.00;6305396;22;45325;-76
2023/05/22 05:12:52;;;;;;;;;3.00;3.00;;;;;23.61;37.18;101581.59;6304739;22;46191;-75
2023/05/22 05:15:17;;;;;;;;;4.00;3.33;;;;;23.83;37.07;101611.06;6305462;22;45791;-76
2023/05/22 05:17:42;;;;;;;;;4.00;3.67;;;;;23.72;37.14;101599.84;6305363;22;45352;-76
2023/05/22 05:20:09;;;;;;;;;2.67;1.33;;;;;23.85;36.67;101619.69;6304815;22;45275;-75
2023/05/22 05:22:34;;;;;;;;;3.00;3.00;;;;;23.85;36.98;101620.53;6304914;22;46466;-76
2023/05/22 05:25:00;;;;;;;;;2.00;2.00;;;;;23.85;36.57;101623.19;6303840;22;45204;-76
2023/05/22 05:27:25;;;;;;;;;3.00;3.00;;;;;23.80;37.02;101603.44;6305195;22;45267;-76
2023/05/22 05:29:51;;;;;;;;;3.00;3.00;;;;;23.80;36.77;101603.44;6303521;22;45238;-76
2023/05/22 05:32:16;;;;;;;;;3.33;3.33;;;;;23.88;36.83;101616.69;6304863;22;46514;-75
2023/05/22 05:34:41;;;;;;;;;2.00;2.00;;;;;23.90;36.62;101625.31;6304904;22;45215;-77
2023/05/22 05:37:07;;;;;;;;;4.33;3.00;;;;;23.91;36.63;101621.66;6305165;22;45356;-75
2023/05/22 05:39:33;;;;;;;;;1.67;1.67;;;;;23.79;36.65;101599.13;6305085;22;45459;-76
2023/05/22 05:41:58;;;;;;;;;4.33;4.00;;;;;23.83;36.62;101611.06;6305303;22;45379;-75
2023/05/22 05:44:24;;;;;;;;;3.67;3.33;;;;;23.88;37.03;101615.88;6305383;22;45290;-76
2023/05/22 05:46:49;;;;;;;;;3.33;3.00;;;;;23.96;36.43;101629.94;6304892;22;45241;-75
2023/05/22 05:49:15;;;;;;;;;5.00;2.67;;;;;23.91;36.98;101613.69;6304307;22;45355;-76
2023/05/22 05:51:40;;;;;;;;;4.00;3.00;;;;;23.94;36.72;101623.16;6304733;22;45545;-76
2023/05/22 05:54:05;;;;;;;;;3.00;2.00;;;;;23.91;36.71;101621.66;6305199;22;45333;-75
2023/05/22 05:56:31;;;;;;;;;6.33;4.00;;;;;23.93;36.61;101617.00;6304761;22;45229;-76
2023/05/22 05:58:56;;;;;;;;;3.00;3.00;;;;;23.93;36.72;101617.00;6304611;22;45280;-75
2023/05/22 06:01:25;;;;;;;;;3.33;1.67;;;;;23.94;36.86;101620.50;6304813;22;46851;-76
2023/05/22 06:03:51;;;;;;;;;4.33;3.33;;;;;23.94;36.93;101620.50;6304311;22;45212;-76
2023/05/22 06:06:16;;;;;;;;;5.33;3.00;;;;;23.80;36.80;101600.78;6305286;22;45395;-76
2023/05/22 06:08:42;;;;;;;;;3.00;3.00;;;;;23.92;36.66;101618.00;6304813;22;45381;-76
2023/05/22 06:11:07;;;;;;;;;4.67;3.67;;;;;23.79;36.83;101599.94;6305012;22;46017;-75
2023/05/22 06:13:32;;;;;;;;;4.67;3.67;;;;;23.90;36.88;101616.50;6304650;22;45211;-76
2023/05/22 06:15:58;;;;;;;;;3.33;3.33;;;;;23.77;37.04;101603.78;6305179;22;45197;-76
2023/05/22 06:18:24;;;;;;;;;2.67;2.33;;;;;23.61;36.81;101582.44;6304715;22;45167;-75
2023/05/22 06:20:50;;;;;;;;;2.33;2.00;;;;;23.94;37.00;101628.47;6304725;22;47037;-75
2023/05/22 06:23:15;;;;;;;;;6.00;3.33;;;;;23.80;36.92;101616.72;6304991;22;45299;-75
2023/05/22 06:25:41;;;;;;;;;4.00;4.00;;;;;23.85;36.84;101631.16;6303146;22;45239;-75
2023/05/22 06:28:06;;;;;;;;;4.00;2.67;;;;;23.87;37.12;101630.13;6304722;22;45292;-76
2023/05/22 06:30:31;;;;;;;;;4.00;2.67;;;;;23.92;36.91;101641.06;6304872;22;45357;-76
2023/05/22 06:32:57;;;;;;;;;4.00;4.00;;;;;23.81;36.74;101629.81;6304164;22;45253;-76
2023/05/22 06:35:22;;;;;;;;;4.00;2.00;;;;;23.82;36.66;101639.47;6304889;22;47697;-77
2023/05/22 06:37:48;;;;;;;;;4.33;4.00;;;;;23.92;36.73;101647.22;6304447;22;46055;-76
2023/05/22 06:40:13;;;;;;;;;2.00;2.00;;;;;23.81;36.75;101632.50;6304987;22;45269;-76
2023/05/22 06:42:38;;;;;;;;;3.67;3.33;;;;;23.92;37.02;101657.03;6304635;22;45284;-76
2023/05/22 06:45:05;;;;;;;;;2.67;2.67;;;;;23.64;37.13;101615.81;6304868;22;45688;-75
2023/05/22 06:47:30;;;;;;;;;7.33;4.33;;;;;23.94;36.96;101666.47;6304475;22;45603;-75
2023/05/22 06:49:56;;;;;;;;;3.33;3.33;;;;;23.74;36.87;101632.38;6304352;22;47053;-76
2023/05/22 06:52:21;;;;;;;;;4.00;3.00;;;;;23.94;36.87;101666.47;6302899;22;45289;-76
2023/05/22 06:54:47;;;;;;;;;4.00;2.00;;;;;23.79;36.83;101638.97;6304672;22;45301;-75
2023/05/22 06:57:12;;;;;;;;;3.00;3.00;;;;;23.92;37.03;101668.50;6305055;22;45439;-76
2023/05/22 06:59:37;;;;;;;;;4.33;3.00;;;;;23.96;36.91;101671.63;6304551;22;47061;-74
2023/05/22 07:02:03;;;;;;;;;2.33;2.33;;;;;23.87;37.00;101659.38;6304222;22;45257;-76
2023/05/22 07:04:28;;;;;;;;;3.33;3.00;;;;;23.96;36.94;101671.63;6304748;22;45284;-76
2023/05/22 07:06:54;;;;;;;;;3.67;3.67;;;;;23.96;36.94;101672.47;6302938;22;45280;-76
2023/05/22 07:09:19;;;;;;;;;3.00;3.00;;;;;23.89;36.58;101668.03;6302818;22;46138;-76
2023/05/22 07:11:47;;;;;;;;;3.00;3.00;;;;;23.99;36.41;101676.63;6303910;22;45421;-75
2023/05/22 07:14:13;;;;;;;;;4.67;3.00;;;;;23.88;36.76;101661.88;6304863;22;45300;-76
2023/05/22 07:16:39;;;;;;;;;4.67;3.00;;;;;23.97;36.42;101675.94;6304577;22;45426;-75
2023/05/22 07:19:05;;;;;;;;;4.00;2.67;;;;;23.95;36.82;101680.59;6304611;22;46336;-75
2023/05/22 07:21:31;;;;;;;;;4.67;2.33;;;;;23.93;36.71;101677.28;6304302;22;45637;-76
2023/05/22 07:23:56;;;;;;;;;6.33;5.00;;;;;24.03;36.38;101683.22;6305143;22;45228;-75
2023/05/22 07:26:22;;;;;;;;;3.00;3.00;;;;;24.04;36.50;101700.00;6304560;22;45222;-76
2023/05/22 07:28:47;;;;;;;;;4.33;4.33;;;;;24.04;36.84;101690.22;6304701;22;45824;-76
2023/05/22 07:31:13;;;;;;;;;3.33;3.00;;;;;23.98;36.38;101688.25;6304359;22;45207;-75
2023/05/22 07:33:38;;;;;;;;;3.67;3.67;;;;;23.91;36.94;101682.78;6304890;22;45301;-75
2023/05/22 07:36:04;;;;;;;;;4.33;4.00;;;;;24.03;36.72;101695.69;6304878;22;45391;-77
2023/05/22 07:38:29;;;;;;;;;4.33;4.33;;;;;24.02;36.65;101694.84;6304205;22;47073;-76
2023/05/22 07:40:55;;;;;;;;;4.00;3.67;;;;;24.03;36.81;101698.34;6304311;22;45149;-76
2023/05/22 07:43:20;;;;;;;;;4.67;3.67;;;;;23.91;36.87;101676.66;6304469;22;45205;-75
2023/05/22 07:45:45;;;;;;;;;3.00;3.00;;;;;24.03;36.59;101695.69;6303981;22;45268;-76
2023/05/22 07:48:11;;;;;;;;;5.33;3.33;;;;;23.96;36.52;101685.75;6304347;22;45280;-76
2023/05/22 07:50:36;;;;;;;;;3.00;3.00;;;;;24.04;36.77;101702.66;6304728;22;45317;-76
2023/05/22 07:53:03;;;;;;;;;1.67;1.67;;;;;24.03;36.75;101711.63;6304825;22;45233;-76
2023/05/22 07:55:28;;;;;;;;;4.00;4.00;;;;;23.92;36.96;101687.09;6304347;22;45425;-75
2023/05/22 07:57:55;;;;;;;;;5.00;5.00;;;;;23.91;36.76;101685.44;6302175;22;47767;-76
2023/05/22 08:00:20;;;;;;;;;5.00;3.67;;;;;23.92;36.49;101687.09;6303833;22;45210;-75
2023/05/22 08:02:46;;;;;;;;;3.00;3.00;;;;;24.04;36.63;101700.84;6304134;22;45327;-76
2023/05/22 08:05:11;;;;;;;;;3.33;3.33;;;;;24.05;36.55;101699.00;6304595;22;45222;-76
2023/05/22 08:07:36;;;;;;;;;4.00;4.00;;;;;24.00;36.92;101691.53;6304334;22;45883;-75
2023/05/22 08:10:06;;;;;;;;;6.00;3.00;;;;;24.03;36.80;101696.53;6304223;22;45223;-76
2023/05/22 08:12:31;;;;;;;;;5.00;3.00;;;;;23.95;36.85;101685.91;6304289;22;45233;-76
2023/05/22 08:14:56;;;;;;;;;2.00;2.00;;;;;24.02;36.54;101694.84;6303658;22;45399;-75
2023/05/22 08:17:22;;;;;;;;;4.00;4.00;;;;;23.99;37.08;101687.25;6303740;22;47473;-75
2023/05/22 08:19:47;;;;;;;;;4.33;3.67;;;;;24.05;37.09;101701.66;6304065;22;51279;-75
2023/05/22 08:22:12;;;;;;;;;2.33;2.33;;;;;24.06;36.84;101703.31;6305039;22;45291;-76
2023/05/22 08:24:38;;;;;;;;;4.67;3.00;;;;;23.99;37.20;101694.38;6305693;22;45260;-76
2023/05/22 08:27:03;;;;;;;;;3.00;3.00;;;;;23.95;36.94;101684.09;6305114;22;47119;-76
2023/05/22 08:29:29;;;;;;;;;5.33;4.67;;;;;23.96;36.86;101688.41;6305174;22;45291;-76
2023/05/22 08:31:55;;;;;;;;;4.67;3.67;;;;;24.11;36.91;101705.44;6305825;22;45213;-75
2023/05/22 08:34:21;;;;;;;;;5.00;3.00;;;;;24.13;36.97;101706.09;6305100;22;45229;-77
2023/05/22 08:36:47;;;;;;;;;4.00;4.00;;;;;24.11;36.85;101697.47;6305116;22;46221;-76
2023/05/22 08:39:13;;;;;;;;;2.33;2.00;;;;;24.13;37.15;101706.09;6305494;22;45297;-76
2023/05/22 08:41:38;;;;;;;;;4.00;3.00;;;;;24.14;36.89;101694.47;6305642;22;45185;-76
2023/05/22 08:44:04;;;;;;;;;4.00;2.00;;;;;24.21;36.90;101705.22;6305249;22;45339;-75
2023/05/22 08:46:31;;;;;;;;;3.00;3.00;;;;;24.11;37.10;101687.69;6304973;22;47046;-76
2023/05/22 08:48:57;;;;;;;;;4.50;3.00;;;;;24.22;36.80;101702.41;6305417;22;45379;-76
2023/05/22 08:51:31;;;;;;;;;5.67;3.00;;;;;24.19;37.09;101692.13;6305072;22;45248;-76
2023/05/22 08:53:57;;;;;;;;;4.00;2.67;;;;;24.23;36.60;101690.75;6305467;22;45438;-76
2023/05/22 08:56:23;;;;;;;;;3.67;3.00;;;;;24.10;36.64;101675.38;6304811;22;47106;-75
2023/05/22 08:58:50;;;;;;;;;4.33;3.33;;;;;24.21;37.03;101689.28;6304598;22;45382;-76
2023/05/22 09:01:15;;;;;;;;;3.00;3.00;;;;;24.19;36.73;101684.16;6305317;22;45284;-76
2023/05/22 09:03:41;;;;;;;;;5.00;4.00;;;;;24.27;37.20;101693.94;6305561;22;45199;-76
2023/05/22 09:06:08;;;;;;;;;4.00;4.00;;;;;24.16;36.58;101685.31;6305558;22;45823;-76
2023/05/22 09:08:33;;;;;;;;;2.67;2.00;;;;;24.28;36.80;101708.88;6305119;22;45256;-76
2023/05/22 09:10:58;;;;;;;;;4.00;3.00;;;;;24.15;36.60;101688.13;6305251;22;45269;-76
2023/05/22 09:13:29;;;;;;;;;3.67;3.00;;;;;24.25;36.80;101701.25;6305238;22;45344;-76
2023/05/22 09:15:59;;;;;;;;;5.00;3.33;;;;;24.23;36.63;101685.44;6305315;22;46948;-76
2023/05/22 09:18:28;;;;;;;;;3.00;3.00;;;;;24.28;36.78;101692.91;6305365;22;45271;-76
2023/05/22 09:20:56;;;;;;;;;5.33;4.67;;;;;24.18;36.85;101682.47;6305018;22;45303;-76
2023/05/22 09:23:23;;;;;;;;;4.00;4.00;;;;;24.27;36.95;101696.59;6305180;22;45411;-76
2023/05/22 09:25:48;;;;;;;;;4.00;3.00;;;;;24.21;37.02;101683.97;6304685;22;46017;-76
2023/05/22 09:28:13;;;;;;;;;2.00;2.00;;;;;24.31;36.92;101710.34;6304884;22;45228;-76
2023/05/22 09:30:40;;;;;;;;;7.67;3.67;;;;;24.23;36.86;101688.09;6305567;22;45205;-76
2023/05/22 09:33:07;;;;;;;;;5.00;4.00;;;;;24.33;36.84;101695.06;6304879;22;45240;-76
2023/05/22 09:35:35;;;;;;;;;4.00;4.00;;;;;24.32;36.92;101707.53;6304459;22;45990;-75
2023/05/22 09:38:00;;;;;;;;;2.67;2.33;;;;;24.33;36.79;101706.53;6304713;22;45283;-76
2023/05/22 09:40:26;;;;;;;;;3.67;3.33;;;;;24.32;37.10;101699.56;6305431;22;45238;-76
2023/05/22 09:42:51;;;;;;;;;4.00;4.00;;;;;24.27;36.63;101685.97;6303124;22;45369;-76
2023/05/22 09:45:20;;;;;;;;;4.33;4.00;;;;;24.26;36.73;101692.25;6304613;22;46270;-76
2023/05/22 09:47:48;;;;;;;;;5.33;4.00;;;;;24.28;36.82;101695.56;6305099;22;45360;-76
2023/05/22 09:50:13;;;;;;;;;2.00;2.00;;;;;24.33;36.62;101705.72;6304968;22;45280;-76
2023/05/22 09:52:42;;;;;;;;;6.33;4.67;;;;;24.34;36.79;101705.53;6304566;22;45442;-75
2023/05/22 09:55:09;;;;;;;;;4.00;2.00;;;;;24.25;36.81;101690.59;6305096;22;45194;-76
2023/05/22 09:57:45;;;;;;;;;4.00;4.00;;;;;24.35;36.87;101703.72;6303893;22;45225;-76
2023/05/22 10:00:14;;;;;;;;;4.00;4.00;;;;;24.31;36.73;101692.56;6304925;22;45271;-76
2023/05/22 10:02:44;;;;;;;;;3.33;3.00;;;;;24.35;36.81;101706.38;6304824;22;45222;-76
2023/05/22 10:05:10;;;;;;;;;4.67;4.67;;;;;24.36;36.99;101705.34;6304610;22;46182;-76
2023/05/22 10:07:48;;;;;;;;;2.67;2.67;;;;;24.36;37.08;101706.19;6304355;22;45233;-77
2023/05/22 10:10:16;;;;;;;;;4.67;4.67;;;;;24.37;37.04;101707.00;6304413;22;45306;-76
2023/05/22 10:13:02;;;;;;;;;6.33;5.00;;;;;24.37;36.94;101702.53;6304761;22;45409;-76
2023/05/22 10:15:27;;;;;;;;;4.00;4.00;;;;;24.27;36.84;101685.97;6304651;22;47247;-76
2023/05/22 10:17:53;;;;;;;;;3.00;3.00;;;;;24.29;37.18;101695.44;6304782;22;45349;-76
2023/05/22 10:20:19;;;;;;;;;4.00;4.00;;;;;24.36;36.81;101708.84;6304919;22;45221;-76
2023/05/22 10:22:46;;;;;;;;;4.67;4.00;;;;;24.40;37.04;101699.53;6304725;22;45201;-76
2023/05/22 10:25:12;;;;;;;;;4.33;4.33;;;;;24.31;36.46;101689.91;6304227;22;46290;-76
2023/05/22 10:27:38;;;;;;;;;4.00;3.33;;;;;24.44;36.78;101704.47;6304303;22;45298;-76
2023/05/22 10:30:19;;;;;;;;;4.00;3.00;;;;;24.45;37.08;101698.16;6304518;22;45296;-76
2023/05/22 10:33:06;;;;;;;;;2.00;2.00;;;;;24.36;36.90;101678.75;6304631;22;45167;-76
2023/05/22 10:35:44;;;;;;;;;3.67;3.67;;;;;24.47;36.82;101704.13;6304454;22;47161;-76
2023/05/22 10:38:27;;;;;;;;;3.00;3.00;;;;;24.46;36.83;101699.81;6304396;22;45330;-76
2023/05/22 10:40:54;;;;;;;;;4.00;4.00;;;;;24.45;37.25;101704.31;6304706;22;45296;-77
2023/05/22 10:43:20;;;;;;;;;5.67;4.00;;;;;24.42;37.01;101703.81;6305081;22;45262;-76
2023/05/22 10:45:46;;;;;;;;;4.67;4.00;;;;;24.46;37.03;101694.50;6303995;22;45170;-76
2023/05/22 10:48:12;;;;;;;;;6.00;5.00;;;;;24.46;37.11;101707.81;6304234;22;45404;-76
2023/05/22 10:50:38;;;;;;;;;5.67;4.00;;;;;24.42;36.82;101695.84;6304625;22;45315;-76
2023/05/22 10:53:24;;;;;;;;;4.00;4.00;;;;;24.46;37.20;101702.47;6304660;22;45506;-76
2023/05/22 10:55:54;;;;;;;;;2.67;2.67;;;;;24.45;36.74;101704.31;6304814;22;45207;-76
2023/05/22 10:58:28;;;;;;;;;4.00;4.00;;;;;24.46;36.85;101713.94;6304345;22;45259;-76
2023/05/22 11:01:15;;;;;;;;;3.00;3.00;;;;;24.47;36.79;101709.44;6304729;22;45209;-76
2023/05/22 11:03:58;;;;;;;;;4.00;3.33;;;;;24.46;36.85;101707.81;6304630;22;45300;-77
2023/05/22 11:07:00;;;;;;;;;4.67;2.33;;;;;24.47;36.96;101709.44;6304321;22;46365;-77
2023/05/22 11:09:31;;;;;;;;;4.00;4.00;;;;;24.40;36.75;101701.34;6304638;22;45388;-77
2023/05/22 11:12:22;;;;;;;;;4.00;3.00;;;;;24.44;36.74;101710.63;6304526;22;45210;-76
2023/05/22 11:14:54;;;;;;;;;3.67;3.00;;;;;24.44;36.77;101709.78;6304507;22;45559;-76
2023/05/22 11:17:24;;;;;;;;;4.00;4.00;;;;;24.43;37.14;101708.16;6304643;22;46331;-76
2023/05/22 11:19:59;;;;;;;;;5.00;5.00;;;;;24.44;36.74;101702.63;6304247;22;45279;-76
2023/05/22 11:22:32;;;;;;;;;3.67;3.67;;;;;24.41;37.17;101705.66;6304451;22;45305;-76
2023/05/22 11:24:58;;;;;;;;;4.33;4.33;;;;;24.37;36.96;101693.72;6304873;22;45458;-76